Time;durP1;ratioP1;P1;durP2;ratioP2;P2;SDS_P1;SDS_P2;PMS_P1;PMS_P2;Temp;Humidity;BMP_temperature;BMP_pressure;BME280_temperature;BME280_humidity;BME280_pressure;Samples;Min_cycle;Max_cycle;Signal;HPM_P1;HPM_P2
2023/10/18 00:01:18;;;;;;;17.73;2.63;;;9.90;99.90;;;;;;4974113;28;20027;-91
2023/10/18 00:03:44;;;;;;;8.32;2.10;;;9.90;99.90;;;;;;4974542;28;20026;-91
2023/10/18 00:06:15;;;;;;;7.30;2.03;;;9.90;99.90;;;;;;4974279;28;20358;-90
2023/10/18 00:08:41;;;;;;;12.07;2.35;;;9.90;99.90;;;;;;4989237;28;20037;-90
2023/10/18 00:11:07;;;;;;;8.95;2.70;;;9.90;99.90;;;;;;4989276;28;20019;-91
2023/10/18 00:13:33;;;;;;;10.27;2.40;;;9.90;99.90;;;;;;4989397;28;20027;-90
2023/10/18 00:16:03;;;;;;;9.23;2.08;;;9.90;99.90;;;;;;4989565;28;20223;-90
2023/10/18 00:18:29;;;;;;;14.13;2.53;;;9.80;99.90;;;;;;4972789;28;20500;-90
2023/10/18 00:21:03;;;;;;;13.73;2.60;;;9.80;99.90;;;;;;4973898;28;20027;-90
2023/10/18 00:23:31;;;;;;;7.13;2.20;;;9.90;99.90;;;;;;4989123;28;20106;-91
2023/10/18 00:26:01;;;;;;;6.97;2.60;;;9.80;99.90;;;;;;4974087;28;20031;-91
2023/10/18 00:28:27;;;;;;;10.50;2.80;;;9.80;99.90;;;;;;4974184;28;20483;-90
2023/10/18 00:30:53;;;;;;;11.70;2.70;;;9.80;99.90;;;;;;4988919;28;20109;-91
2023/10/18 00:33:19;;;;;;;8.52;3.35;;;9.70;99.90;;;;;;4972423;28;20115;-91
2023/10/18 00:35:47;;;;;;;11.85;2.60;;;9.80;99.90;;;;;;4975762;28;20051;-90
2023/10/18 00:38:18;;;;;;;14.60;2.83;;;9.70;99.90;;;;;;4973326;28;20037;-90
2023/10/18 00:40:45;;;;;;;8.27;3.15;;;9.70;99.90;;;;;;4976554;28;20046;-89
2023/10/18 00:45:47;;;;;;;13.18;2.78;;;9.70;99.90;;;;;;4977353;28;20026;-90
2023/10/18 00:48:14;;;;;;;6.22;2.30;;;9.80;99.90;;;;;;4992690;28;20023;-91
2023/10/18 00:50:43;;;;;;;9.02;2.95;;;9.70;99.90;;;;;;4984509;28;20068;-90
2023/10/18 00:53:11;;;;;;;13.55;3.10;;;9.70;99.90;;;;;;4985273;28;20401;-91
2023/10/18 00:55:37;;;;;;;16.35;4.75;;;9.70;99.90;;;;;;4977415;28;20026;-90
2023/10/18 00:58:11;;;;;;;12.25;3.00;;;9.70;99.90;;;;;;4974655;28;20039;-91
2023/10/18 01:00:40;;;;;;;15.00;3.33;;;9.70;99.90;;;;;;4976892;28;20473;-89
2023/10/18 01:03:09;;;;;;;14.45;4.63;;;9.70;99.90;;;;;;4987607;28;20032;-90
2023/10/18 01:05:35;;;;;;;16.20;3.95;;;9.70;99.90;;;;;;4992053;28;20492;-90
2023/10/18 01:08:06;;;;;;;10.75;3.15;;;9.60;99.90;;;;;;4975852;28;20051;-90
2023/10/18 01:10:33;;;;;;;13.70;4.32;;;9.70;99.90;;;;;;4992140;28;20456;-88
2023/10/18 01:13:01;;;;;;;14.48;3.58;;;9.70;99.90;;;;;;4992008;28;20372;-90
2023/10/18 01:15:28;;;;;;;20.80;3.53;;;9.70;99.90;;;;;;4976735;28;20384;-90
2023/10/18 01:17:54;;;;;;;14.20;3.22;;;9.70;99.90;;;;;;4991822;28;20214;-91
2023/10/18 01:22:58;;;;;;;11.35;3.80;;;9.70;99.90;;;;;;4976680;28;20041;-89
2023/10/18 01:25:24;;;;;;;13.00;4.60;;;9.70;99.90;;;;;;4992177;28;20026;-90
2023/10/18 01:27:51;;;;;;;15.25;4.43;;;9.70;99.90;;;;;;4976873;28;20011;-90
2023/10/18 01:30:19;;;;;;;15.15;3.72;;;9.60;99.90;;;;;;4992284;28;20035;-91
2023/10/18 01:32:45;;;;;;;13.23;4.03;;;9.60;99.90;;;;;;4977920;28;20452;-90
2023/10/18 01:35:15;;;;;;;14.82;4.78;;;9.60;99.90;;;;;;4977213;28;20022;-91
2023/10/18 01:37:43;;;;;;;12.52;3.72;;;9.60;99.90;;;;;;4976596;28;20550;-90
2023/10/18 01:40:21;;;;;;;14.45;4.95;;;9.70;99.90;;;;;;4991376;28;20377;-91
2023/10/18 01:42:55;;;;;;;13.32;4.00;;;9.60;99.90;;;;;;4975133;28;20030;-90
2023/10/18 01:45:22;;;;;;;8.13;3.35;;;9.60;99.90;;;;;;4976153;28;20023;-90
2023/10/18 01:47:49;;;;;;;9.55;4.00;;;9.60;99.90;;;;;;4991899;28;20055;-91
2023/10/18 01:50:15;;;;;;;12.77;4.15;;;9.60;99.90;;;;;;4994568;28;20031;-89
2023/10/18 01:52:42;;;;;;;15.95;3.90;;;9.60;99.90;;;;;;4981681;28;20485;-89
2023/10/18 01:55:12;;;;;;;15.35;3.53;;;9.60;99.90;;;;;;4989417;28;20504;-91
2023/10/18 01:57:38;;;;;;;17.05;4.57;;;9.60;99.90;;;;;;4973868;28;20511;-90
2023/10/18 02:00:05;;;;;;;13.55;4.55;;;9.60;99.90;;;;;;4973088;28;20155;-90
2023/10/18 02:02:34;;;;;;;7.43;3.75;;;9.60;99.90;;;;;;4971909;28;20027;-90
2023/10/18 02:07:26;;;;;;;10.90;4.10;;;9.60;99.90;;;;;;4958742;28;20026;-89
2023/10/18 02:09:57;;;;;;;18.58;4.07;;;9.60;99.90;;;;;;4976397;28;20138;-90
2023/10/18 02:12:27;;;;;;;20.95;4.93;;;9.60;99.90;;;;;;4975607;28;20149;-90
2023/10/18 02:14:55;;;;;;;14.98;4.30;;;9.60;99.90;;;;;;4975645;28;20023;-90
2023/10/18 02:17:21;;;;;;;12.25;4.55;;;9.60;99.90;;;;;;4975409;28;20084;-90
2023/10/18 02:19:48;;;;;;;16.10;4.53;;;9.60;99.90;;;;;;4974871;28;20106;-89
2023/10/18 02:22:16;;;;;;;12.77;3.33;;;9.60;99.90;;;;;;4975898;28;20031;-90
2023/10/18 02:24:42;;;;;;;11.45;4.53;;;9.60;99.90;;;;;;4975039;28;20068;-89
2023/10/18 02:27:15;;;;;;;15.10;3.70;;;9.60;99.90;;;;;;4975288;28;20038;-89
2023/10/18 02:29:42;;;;;;;17.00;5.25;;;9.60;99.90;;;;;;4975546;28;20030;-89
2023/10/18 02:34:52;;;;;;;22.30;4.93;;;9.60;99.90;;;;;;4996618;28;20055;-90
2023/10/18 02:37:19;;;;;;;11.02;4.75;;;9.60;99.90;;;;;;4996999;28;20007;-91
2023/10/18 02:39:45;;;;;;;21.52;6.07;;;9.60;99.90;;;;;;4998663;28;20049;-90
2023/10/18 02:42:13;;;;;;;15.98;4.90;;;9.60;99.90;;;;;;4992836;28;20322;-90
2023/10/18 02:44:44;;;;;;;20.65;6.05;;;9.60;99.90;;;;;;4984156;28;20041;-90
2023/10/18 02:47:16;;;;;;;15.65;4.65;;;9.70;99.90;;;;;;4982476;28;20465;-91
2023/10/18 02:49:45;;;;;;;21.73;5.00;;;9.70;99.90;;;;;;4978341;28;20026;-90
2023/10/18 02:52:15;;;;;;;14.45;4.80;;;9.70;99.90;;;;;;4976794;28;20030;-91
2023/10/18 02:54:40;;;;;;;13.57;4.78;;;9.70;99.90;;;;;;4977238;28;20028;-90
2023/10/18 02:57:06;;;;;;;17.60;5.32;;;9.70;99.90;;;;;;4983423;28;20030;-90
2023/10/18 02:59:32;;;;;;;19.27;6.03;;;9.70;99.90;;;;;;4987639;28;20046;-91
2023/10/18 03:02:01;;;;;;;16.17;5.22;;;9.70;99.90;;;;;;4977500;28;20058;-91
2023/10/18 03:04:29;;;;;;;20.02;5.65;;;9.60;99.90;;;;;;4975545;28;20385;-91
2023/10/18 03:06:55;;;;;;;13.48;5.05;;;9.60;99.90;;;;;;4974791;28;20429;-90
2023/10/18 03:09:38;;;;;;;18.98;6.88;;;9.70;99.90;;;;;;4975566;28;20031;-89
2023/10/18 03:12:13;;;;;;;14.18;5.43;;;9.70;99.90;;;;;;4974434;28;20086;-90
2023/10/18 03:14:39;;;;;;;17.05;6.53;;;9.60;99.90;;;;;;4974537;28;20035;-90
2023/10/18 03:17:15;;;;;;;20.10;5.55;;;9.60;99.90;;;;;;4974255;28;20027;-90
2023/10/18 03:19:44;;;;;;;23.08;6.43;;;9.60;99.90;;;;;;4974518;28;20023;-90
2023/10/18 03:22:11;;;;;;;20.20;6.38;;;9.60;99.90;;;;;;4974361;28;20019;-89
2023/10/18 03:24:37;;;;;;;17.27;6.75;;;9.60;99.90;;;;;;4974586;28;20121;-89
2023/10/18 03:27:08;;;;;;;13.13;5.82;;;9.60;99.90;;;;;;4975154;28;20050;-90
2023/10/18 03:29:37;;;;;;;18.10;6.35;;;9.60;99.90;;;;;;4990686;28;20023;-89
2023/10/18 03:32:08;;;;;;;21.25;6.90;;;9.60;99.90;;;;;;4995285;28;20034;-90
2023/10/18 03:34:37;;;;;;;;;;;9.70;99.90;;;;;;5008113;28;20033;-91
2023/10/18 03:37:04;;;;;;;27.13;6.80;;;9.70;99.90;;;;;;4977135;28;19912;-90
2023/10/18 03:39:30;;;;;;;16.05;5.97;;;9.70;99.90;;;;;;4975369;28;20046;-91
2023/10/18 03:41:58;;;;;;;22.83;6.82;;;9.70;99.90;;;;;;4973410;28;20045;-91
2023/10/18 03:44:27;;;;;;;24.70;7.22;;;9.70;99.90;;;;;;4973584;28;20034;-89
2023/10/18 03:47:11;;;;;;;23.73;7.15;;;9.70;99.90;;;;;;4975066;28;20039;-90
2023/10/18 03:49:37;;;;;;;23.08;7.22;;;9.70;99.90;;;;;;4975051;28;20027;-90
2023/10/18 03:52:27;;;;;;;23.83;7.63;;;9.70;99.90;;;;;;4974989;28;20046;-91
2023/10/18 03:57:29;;;;;;;18.80;6.90;;;9.70;99.90;;;;;;4976221;28;20038;-90
2023/10/18 03:59:58;;;;;;;24.30;7.43;;;9.70;99.90;;;;;;4974735;28;20031;-90
2023/10/18 04:04:57;;;;;;;17.23;6.22;;;9.60;99.90;;;;;;4974723;28;20491;-90
2023/10/18 04:07:24;;;;;;;16.10;6.63;;;9.70;99.90;;;;;;4991050;28;20424;-90
2023/10/18 04:12:27;;;;;;;21.42;8.07;;;9.60;99.90;;;;;;4978662;28;20526;-91
2023/10/18 04:14:58;;;;;;;22.88;7.47;;;9.60;99.90;;;;;;4978430;28;20098;-91
2023/10/18 04:17:38;;;;;;;22.73;7.93;;;9.60;99.90;;;;;;4993780;28;20058;-91
2023/10/18 04:22:46;;;;;;;24.02;7.85;;;9.60;99.90;;;;;;4978765;28;20496;-91
2023/10/18 04:25:30;;;;;;;26.58;8.98;;;9.60;99.90;;;;;;4978411;28;20045;-91
2023/10/18 04:27:59;;;;;;;31.05;8.68;;;9.60;99.90;;;;;;4993430;28;20026;-90
2023/10/18 04:30:29;;;;;;;33.47;9.45;;;9.60;99.90;;;;;;4993335;28;20030;-91
2023/10/18 04:33:12;;;;;;;20.73;7.15;;;9.60;99.90;;;;;;4993422;28;20037;-90
2023/10/18 04:35:45;;;;;;;19.40;7.22;;;9.60;99.90;;;;;;4998704;28;20035;-91
2023/10/18 04:41:03;;;;;;;18.67;8.50;;;9.60;99.90;;;;;;4978479;28;20142;-92
2023/10/18 04:43:32;;;;;;;22.48;7.55;;;9.60;99.90;;;;;;4993500;28;20033;-91
2023/10/18 04:46:04;;;;;;;23.65;8.73;;;9.70;99.90;;;;;;4993460;28;20046;-92
2023/10/18 04:53:54;;;;;;;;;;;9.60;99.90;;;;;;4988687;28;20087;-91
2023/10/18 04:56:24;;;;;;;17.60;7.20;;;9.70;99.90;;;;;;4986517;28;19906;-91
2023/10/18 04:58:50;;;;;;;19.33;7.53;;;9.60;99.90;;;;;;4994816;28;20030;-91
2023/10/18 05:01:16;;;;;;;25.85;9.57;;;9.60;99.90;;;;;;5002567;28;20464;-91
2023/10/18 05:03:44;;;;;;;22.42;9.05;;;9.60;99.90;;;;;;4998934;28;20031;-91
2023/10/18 05:06:11;;;;;;;21.35;7.60;;;9.60;99.90;;;;;;4979518;28;20031;-92
2023/10/18 05:08:37;;;;;;;23.52;8.30;;;9.70;99.90;;;;;;4977881;28;20035;-91
2023/10/18 05:13:48;;;;;;;28.65;10.48;;;9.70;99.90;;;;;;4977738;28;20042;-92
2023/10/18 05:16:16;;;;;;;19.23;7.60;;;9.80;99.90;;;;;;4976424;28;20054;-90
2023/10/18 05:18:44;;;;;;;19.77;8.18;;;9.80;99.90;;;;;;4991748;28;20027;-91
2023/10/18 05:21:10;;;;;;;17.45;8.18;;;9.80;99.90;;;;;;4992517;28;20481;-91
2023/10/18 05:23:36;;;;;;;20.05;7.97;;;9.80;99.90;;;;;;4976148;28;20027;-90
2023/10/18 05:28:47;;;;;;;21.90;7.80;;;9.80;99.90;;;;;;4981035;28;20467;-90
2023/10/18 05:33:57;;;;;;;21.70;8.25;;;9.70;99.90;;;;;;4980618;28;20027;-91
2023/10/18 05:38:50;;;;;;;24.88;8.60;;;9.70;99.90;;;;;;4997971;28;20023;-91
2023/10/18 05:43:53;;;;;;;24.23;8.05;;;9.70;99.90;;;;;;4998356;28;20045;-91
2023/10/18 05:46:20;;;;;;;17.85;7.63;;;9.70;99.90;;;;;;4998395;28;20027;-92
2023/10/18 05:48:46;;;;;;;19.08;7.03;;;9.70;99.90;;;;;;4996555;28;20046;-91
2023/10/18 05:53:59;;;;;;;27.35;8.43;;;9.70;99.90;;;;;;4981581;28;20043;-90
2023/10/18 05:56:32;;;;;;;21.52;7.30;;;9.70;99.90;;;;;;4988100;28;20081;-90
2023/10/18 06:01:44;;;;;;;25.40;8.05;;;9.60;99.90;;;;;;4978652;28;20428;-93
2023/10/18 06:04:12;;;;;;;19.38;8.27;;;9.60;99.90;;;;;;4978959;28;20114;-91
2023/10/18 06:06:38;;;;;;;28.30;7.53;;;9.60;99.90;;;;;;4992725;28;20039;-90
2023/10/18 06:09:26;;;;;;;24.40;8.10;;;9.60;99.90;;;;;;4975901;28;20101;-92
2023/10/18 06:11:51;;;;;;;17.25;6.65;;;9.60;99.90;;;;;;4971568;28;20031;-93
2023/10/18 06:14:17;;;;;;;14.07;6.72;;;9.60;99.90;;;;;;4975654;28;20473;-92
2023/10/18 06:16:51;;;;;;;20.67;9.13;;;9.50;99.90;;;;;;4976659;28;20030;-91
2023/10/18 06:19:22;;;;;;;13.18;7.40;;;9.50;99.90;;;;;;4975261;28;20390;-93
2023/10/18 06:22:08;;;;;;;22.85;7.93;;;9.50;99.90;;;;;;4976344;28;20019;-93
2023/10/18 06:24:33;;;;;;;24.25;7.95;;;9.50;99.90;;;;;;4974431;28;20027;-91
2023/10/18 06:26:59;;;;;;;20.50;7.43;;;9.40;99.90;;;;;;4991645;28;20033;-92
2023/10/18 06:29:25;;;;;;;20.95;7.60;;;9.40;99.90;;;;;;4995734;28;20054;-94
2023/10/18 06:31:53;;;;;;;17.25;6.55;;;9.40;99.90;;;;;;4978226;28;20065;-93
2023/10/18 06:34:19;;;;;;;23.90;8.43;;;9.40;99.90;;;;;;4976628;28;20069;-93
2023/10/18 06:36:52;;;;;;;15.35;7.05;;;9.40;99.90;;;;;;4970610;28;20024;-94
2023/10/18 06:39:25;;;;;;;20.35;7.50;;;9.40;99.90;;;;;;4974700;28;20131;-94
2023/10/18 06:41:55;;;;;;;17.50;7.85;;;9.40;99.90;;;;;;4991012;28;20074;-94
2023/10/18 06:44:27;;;;;;;17.55;8.43;;;9.40;99.90;;;;;;4975270;28;20061;-92
2023/10/18 06:46:53;;;;;;;19.02;8.07;;;9.40;99.90;;;;;;4975304;28;20065;-93
2023/10/18 06:49:19;;;;;;;30.25;9.52;;;9.40;99.90;;;;;;4975430;28;20059;-93
2023/10/18 06:51:49;;;;;;;19.30;8.35;;;9.40;99.90;;;;;;4975784;28;20143;-92
2023/10/18 06:54:15;;;;;;;20.83;7.73;;;9.40;99.90;;;;;;4975894;28;20080;-93
2023/10/18 06:56:47;;;;;;;19.30;8.50;;;9.40;99.90;;;;;;4974188;28;20552;-93
2023/10/18 06:59:13;;;;;;;22.02;8.93;;;9.40;99.90;;;;;;4972716;28;20129;-92
2023/10/18 07:01:41;;;;;;;24.20;9.50;;;9.40;99.90;;;;;;4991077;28;20500;-92
2023/10/18 07:04:15;;;;;;;23.92;9.65;;;9.40;99.90;;;;;;4970999;28;20046;-90
2023/10/18 07:06:44;;;;;;;21.38;8.65;;;9.40;99.90;;;;;;4972682;28;20039;-91
2023/10/18 07:09:31;;;;;;;25.30;10.55;;;9.40;99.90;;;;;;4975976;28;20046;-91
2023/10/18 07:11:57;;;;;;;20.88;8.90;;;9.40;99.90;;;;;;4973277;28;20019;-93
2023/10/18 07:14:26;;;;;;;25.13;9.82;;;9.40;99.90;;;;;;4975110;28;20042;-93
2023/10/18 07:16:55;;;;;;;28.63;9.52;;;9.40;99.90;;;;;;4974860;28;20423;-93
2023/10/18 07:21:51;;;;;;;19.15;8.00;;;9.40;99.90;;;;;;4974883;28;20109;-92
2023/10/18 07:24:54;;;;;;;30.73;8.05;;;9.40;99.90;;;;;;4974697;28;20026;-91
2023/10/18 07:27:09;;;;;;;25.10;7.63;;;9.40;99.90;;;;;;4972430;28;20097;-92
2023/10/18 07:29:45;;;;;;;27.80;7.70;;;9.50;99.90;;;;;;4975091;28;20025;-93
2023/10/18 07:32:12;;;;;;;20.88;6.82;;;9.50;99.90;;;;;;4989550;28;20041;-92
2023/10/18 07:34:38;;;;;;;15.38;6.60;;;9.50;99.90;;;;;;4990238;28;20097;-92
2023/10/18 07:40:10;;;;;;;22.35;7.50;;;9.50;99.90;;;;;;4955897;28;20019;-91
2023/10/18 07:42:41;;;;;;;;;;;9.60;99.90;;;;;;4945969;28;20047;-90
2023/10/18 07:45:08;;;;;;;21.88;7.30;;;9.60;99.90;;;;;;4954295;28;19918;-91
2023/10/18 07:47:37;;;;;;;18.77;6.65;;;9.60;99.90;;;;;;4953959;29;20063;-92
2023/10/18 07:50:34;;;;;;;17.25;9.23;;;9.60;99.90;;;;;;4954127;28;20031;-90
2023/10/18 07:52:56;;;;;;;13.73;6.57;;;9.70;99.90;;;;;;4947628;29;20039;-90
2023/10/18 07:55:23;;;;;;;24.17;7.40;;;9.70;99.90;;;;;;4953936;29;20047;-90
2023/10/18 07:57:50;;;;;;;17.92;6.68;;;9.80;99.90;;;;;;4953929;28;20042;-90
2023/10/18 08:00:21;;;;;;;16.90;6.78;;;9.80;99.90;;;;;;4952500;29;20046;-91
2023/10/18 08:02:50;;;;;;;21.88;6.32;;;9.80;99.90;;;;;;4938178;28;20067;-91
2023/10/18 08:05:22;;;;;;;12.73;5.82;;;9.90;99.90;;;;;;4931527;29;20067;-91
2023/10/18 08:08:08;;;;;;;18.10;6.22;;;9.90;99.90;;;;;;4947134;29;20032;-90
2023/10/18 08:10:35;;;;;;;19.15;6.20;;;10.00;99.90;;;;;;4954646;29;20031;-90
2023/10/18 08:13:07;;;;;;;14.95;6.28;;;10.00;99.90;;;;;;4953465;28;20043;-90
2023/10/18 08:15:36;;;;;;;11.20;5.10;;;10.10;99.90;;;;;;4974009;28;20036;-90
2023/10/18 08:18:17;;;;;;;18.67;5.07;;;10.10;99.90;;;;;;4973140;28;20027;-91
2023/10/18 08:23:36;;;;;;;11.02;5.20;;;10.20;99.90;;;;;;4956321;28;20027;-91
2023/10/18 08:26:04;;;;;;;23.65;5.93;;;10.20;99.90;;;;;;4955172;28;20529;-91
2023/10/18 08:28:38;;;;;;;18.10;5.25;;;10.30;99.90;;;;;;4972133;28;20089;-90
2023/10/18 08:31:34;;;;;;;16.88;5.05;;;10.40;99.90;;;;;;4975574;28;20506;-90
2023/10/18 08:34:05;;;;;;;16.23;5.65;;;10.40;99.90;;;;;;4972796;28;20110;-93
2023/10/18 08:36:34;;;;;;;16.25;5.63;;;10.50;99.90;;;;;;4973208;28;20054;-91
2023/10/18 08:39:04;;;;;;;21.67;5.53;;;10.50;99.90;;;;;;4956102;28;20122;-92
2023/10/18 08:41:36;;;;;;;15.02;5.30;;;10.60;99.90;;;;;;4971156;28;20046;-91
2023/10/18 08:44:16;;;;;;;14.65;4.32;;;10.60;99.90;;;;;;4960060;28;20190;-91
2023/10/18 08:46:51;;;;;;;15.10;4.45;;;10.70;99.90;;;;;;4960551;28;20146;-92
2023/10/18 08:49:21;;;;;;;17.67;4.72;;;10.80;99.90;;;;;;4977874;28;20062;-91
2023/10/18 08:51:54;;;;;;;24.45;4.53;;;10.80;99.90;;;;;;4976061;28;20469;-92
2023/10/18 08:54:22;;;;;;;13.32;5.32;;;10.90;99.90;;;;;;4975911;28;20027;-91
2023/10/18 08:56:49;;;;;;;15.85;4.70;;;11.00;99.90;;;;;;4991143;28;20389;-92
2023/10/18 08:59:19;;;;;;;27.00;5.30;;;11.00;99.90;;;;;;4990883;28;20023;-92
2023/10/18 09:02:11;;;;;;;19.35;4.03;;;11.10;99.90;;;;;;4993043;28;20134;-91
2023/10/18 09:04:40;;;;;;;13.68;4.30;;;11.10;99.90;;;;;;4970638;28;20042;-92
2023/10/18 09:07:42;;;;;;;12.57;4.30;;;11.20;99.90;;;;;;4992501;28;20059;-91
2023/10/18 09:09:56;;;;;;;16.58;4.57;;;11.30;99.90;;;;;;4976433;28;20026;-92
2023/10/18 09:17:56;;;;;;;17.17;3.67;;;11.50;99.90;;;;;;4977297;28;20145;-92
2023/10/18 09:20:29;;;;;;;10.55;3.80;;;11.70;99.90;;;;;;4977096;28;20030;-92
2023/10/18 09:23:01;;;;;;;15.18;4.28;;;11.90;99.90;;;;;;4975818;28;20066;-91
2023/10/18 09:25:47;;;;;;;18.15;3.30;;;12.00;99.90;;;;;;4992196;28;20035;-93
2023/10/18 09:28:25;;;;;;;14.20;2.95;;;12.20;99.90;;;;;;4975291;28;20062;-94
2023/10/18 09:31:00;;;;;;;11.60;3.60;;;12.40;99.90;;;;;;4983533;28;20034;-93
2023/10/18 09:33:33;;;;;;;12.93;4.03;;;12.70;99.90;;;;;;4991690;28;20113;-92
2023/10/18 09:36:02;;;;;;;12.27;3.05;;;12.90;99.90;;;;;;4994060;28;20019;-93
2023/10/18 09:38:39;;;;;;;15.13;3.53;;;13.20;99.90;;;;;;4988920;28;20114;-93
2023/10/18 09:41:05;;;;;;;18.20;3.88;;;13.40;99.90;;;;;;4991390;28;20054;-93
2023/10/18 09:43:33;;;;;;;12.50;3.17;;;13.60;99.90;;;;;;4971953;28;20037;-92
2023/10/18 09:45:59;;;;;;;14.30;3.72;;;13.70;99.90;;;;;;4977215;28;20105;-93
2023/10/18 09:48:33;;;;;;;17.88;3.35;;;13.90;99.90;;;;;;4977032;28;20539;-92
2023/10/18 09:51:09;;;;;;;16.30;3.10;;;14.00;99.90;;;;;;4991289;28;20126;-93
2023/10/18 09:53:43;;;;;;;11.68;2.70;;;14.20;99.90;;;;;;4957500;29;20062;-93
2023/10/18 09:56:33;;;;;;;11.25;2.92;;;14.40;99.90;;;;;;4973168;28;20043;-91
2023/10/18 09:59:07;;;;;;;14.95;3.45;;;14.60;99.90;;;;;;4976852;28;20077;-92
2023/10/18 10:04:14;;;;;;;18.33;4.03;;;15.00;99.90;;;;;;4977701;28;20555;-91
2023/10/18 10:06:47;;;;;;;13.45;3.10;;;15.20;99.90;;;;;;4972197;28;20047;-92
2023/10/18 10:09:14;;;;;;;10.50;2.70;;;15.40;99.90;;;;;;4956416;29;20030;-91
2023/10/18 10:11:43;;;;;;;19.45;3.38;;;15.60;99.90;;;;;;4959255;28;20557;-93
2023/10/18 10:14:18;;;;;;;11.75;2.70;;;15.80;99.90;;;;;;4975239;28;20022;-91
2023/10/18 10:16:57;;;;;;;16.95;4.03;;;15.90;99.90;;;;;;4990978;28;20030;-92
2023/10/18 10:19:34;;;;;;;14.80;2.95;;;16.00;99.90;;;;;;4970432;28;20027;-93
2023/10/18 10:22:07;;;;;;;13.20;3.00;;;16.10;99.90;;;;;;4975773;28;20031;-93
2023/10/18 10:24:45;;;;;;;16.63;2.85;;;16.40;99.90;;;;;;4976238;28;20095;-92
2023/10/18 10:27:27;;;;;;;10.02;2.92;;;16.70;99.90;;;;;;4975612;28;20027;-93
2023/10/18 10:30:02;;;;;;;10.55;2.80;;;16.80;99.90;;;;;;4975612;28;20057;-92
2023/10/18 10:32:28;;;;;;;11.43;2.80;;;17.00;99.90;;;;;;4974597;28;20031;-91
2023/10/18 10:35:16;;;;;;;12.00;3.13;;;17.10;99.90;;;;;;4974826;28;20034;-94
2023/10/18 10:37:48;;;;;;;11.25;2.50;;;17.30;99.90;;;;;;4975523;28;20042;-93
2023/10/18 10:43:01;;;;;;;13.40;2.95;;;17.70;99.00;;;;;;4982055;28;20102;-92
2023/10/18 10:45:30;;;;;;;13.27;2.42;;;17.80;97.50;;;;;;4990431;28;20031;-92
2023/10/18 10:50:45;;;;;;;11.45;2.60;;;17.90;95.40;;;;;;4976079;28;20090;-91
2023/10/18 10:53:15;;;;;;;15.98;3.15;;;17.80;95.00;;;;;;4969321;28;20406;-91
2023/10/18 10:55:43;;;;;;;14.95;2.83;;;17.90;95.00;;;;;;4970238;28;20023;-93
2023/10/18 10:58:16;;;;;;;12.60;2.78;;;17.80;94.40;;;;;;4990142;28;20038;-90
2023/10/18 11:01:05;;;;;;;13.40;3.17;;;17.70;94.00;;;;;;4975487;28;20428;-90
2023/10/18 11:03:53;;;;;;;14.05;2.88;;;17.80;93.50;;;;;;4990215;28;20027;-91
2023/10/18 11:06:32;;;;;;;10.63;2.60;;;17.70;93.30;;;;;;4956435;28;20039;-92
2023/10/18 11:08:58;;;;;;;11.77;2.75;;;17.70;93.30;;;;;;4973534;28;20023;-92
2023/10/18 11:11:27;;;;;;;13.77;2.70;;;17.70;93.30;;;;;;4973663;28;20022;-91
2023/10/18 11:13:53;;;;;;;14.88;2.85;;;17.60;92.90;;;;;;4980452;28;20027;-92
2023/10/18 11:16:22;;;;;;;10.32;2.78;;;17.50;93.00;;;;;;4977917;28;20026;-91
2023/10/18 11:18:52;;;;;;;14.52;3.38;;;17.50;93.00;;;;;;4974690;28;20031;-91
2023/10/18 11:21:21;;;;;;;13.77;3.30;;;17.50;92.90;;;;;;4994614;28;20081;-92
2023/10/18 11:23:53;;;;;;;12.88;3.05;;;17.60;92.90;;;;;;4988376;28;20022;-91
2023/10/18 11:26:24;;;;;;;14.07;3.03;;;17.90;92.90;;;;;;4970646;28;20042;-91
2023/10/18 11:28:55;;;;;;;13.77;3.13;;;18.10;92.00;;;;;;4971973;28;20019;-92
2023/10/18 11:31:26;;;;;;;10.00;3.13;;;18.30;91.80;;;;;;4973833;28;20022;-92
2023/10/18 11:33:59;;;;;;;14.48;2.92;;;18.50;91.40;;;;;;4970456;28;20037;-93
2023/10/18 11:36:27;;;;;;;13.63;2.70;;;18.70;91.00;;;;;;4972917;28;20493;-91
2023/10/18 11:41:38;;;;;;;9.38;2.55;;;19.00;90.30;;;;;;4972955;28;20130;-91
2023/10/18 11:44:10;;;;;;;15.60;3.28;;;19.00;88.80;;;;;;4978073;28;20031;-91
2023/10/18 11:46:46;;;;;;;9.88;2.60;;;18.90;88.90;;;;;;4990248;28;20069;-91
2023/10/18 11:49:19;;;;;;;13.88;2.90;;;18.90;88.80;;;;;;4976942;28;20074;-91
2023/10/18 11:51:50;;;;;;;15.20;2.92;;;19.00;89.40;;;;;;4978962;28;20113;-90
2023/10/18 11:54:36;;;;;;;16.50;3.33;;;19.20;89.10;;;;;;4988667;28;20019;-91
2023/10/18 11:57:05;;;;;;;13.73;2.78;;;19.40;87.90;;;;;;4975214;28;20038;-91
2023/10/18 11:59:52;;;;;;;13.32;2.95;;;19.60;87.40;;;;;;4988577;28;20031;-91
2023/10/18 12:02:18;;;;;;;11.88;2.85;;;19.80;86.30;;;;;;4991005;28;20090;-91
2023/10/18 12:04:45;;;;;;;11.18;2.95;;;19.80;85.70;;;;;;4974737;28;20057;-91
2023/10/18 12:07:13;;;;;;;13.45;3.55;;;19.90;85.40;;;;;;4974372;28;20034;-92
2023/10/18 12:09:43;;;;;;;13.25;4.05;;;19.90;84.10;;;;;;4987674;28;20027;-94
2023/10/18 12:12:13;;;;;;;17.27;3.10;;;19.80;84.30;;;;;;4969959;28;20062;-92
2023/10/18 12:14:45;;;;;;;13.53;2.63;;;20.00;84.50;;;;;;4972063;28;20058;-91
2023/10/18 12:17:14;;;;;;;16.48;3.47;;;20.10;83.80;;;;;;4981374;28;20321;-91
2023/10/18 12:19:41;;;;;;;11.82;2.88;;;20.00;82.80;;;;;;4973771;28;20015;-91
2023/10/18 12:22:09;;;;;;;18.45;3.50;;;19.90;82.70;;;;;;4973753;28;20499;-91
2023/10/18 12:24:35;;;;;;;18.13;3.42;;;19.90;83.40;;;;;;4987182;28;20034;-92
2023/10/18 12:27:18;;;;;;;12.23;3.00;;;19.90;83.30;;;;;;4974125;28;20499;-91
2023/10/18 12:29:46;;;;;;;12.13;2.80;;;19.80;83.20;;;;;;4976034;28;20039;-92
2023/10/18 12:32:30;;;;;;;10.30;2.85;;;20.00;83.10;;;;;;4977163;28;20038;-91
2023/10/18 12:34:56;;;;;;;12.93;3.13;;;20.10;82.50;;;;;;4975402;28;20030;-89
2023/10/18 12:37:25;;;;;;;8.85;2.55;;;20.20;82.00;;;;;;4976507;28;20049;-92
2023/10/18 12:39:51;;;;;;;9.68;2.90;;;20.30;82.00;;;;;;4975593;28;20101;-91
2023/10/18 12:42:21;;;;;;;13.82;3.05;;;20.60;82.00;;;;;;4974992;28;20481;-90
2023/10/18 12:44:47;;;;;;;15.70;3.30;;;20.70;81.30;;;;;;4980464;28;20262;-90
2023/10/18 12:47:19;;;;;;;12.77;2.97;;;20.70;81.30;;;;;;4991006;28;20045;-89
2023/10/18 12:49:50;;;;;;;11.05;2.80;;;20.60;80.80;;;;;;4990533;28;20030;-91
2023/10/18 12:55:05;;;;;;;14.90;2.80;;;20.80;81.10;;;;;;4995391;28;20026;-90
2023/10/18 12:57:34;;;;;;;11.60;3.42;;;20.50;80.50;;;;;;4995902;28;20077;-91
2023/10/18 13:00:18;;;;;;;14.70;3.42;;;20.10;80.80;;;;;;4994431;28;20473;-90
2023/10/18 13:02:50;;;;;;;16.15;3.40;;;19.70;81.50;;;;;;4980527;28;20097;-90
2023/10/18 13:05:17;;;;;;;13.32;3.45;;;19.20;82.60;;;;;;4979397;28;20023;-93
2023/10/18 13:07:45;;;;;;;10.15;2.75;;;18.90;83.80;;;;;;4977742;28;20042;-90
2023/10/18 13:10:12;;;;;;;10.63;2.72;;;18.50;84.70;;;;;;4979073;28;20030;-90
2023/10/18 13:12:43;;;;;;;12.20;2.65;;;18.30;86.00;;;;;;4978444;28;20451;-91
2023/10/18 13:15:10;;;;;;;15.20;3.33;;;18.10;87.00;;;;;;4976479;28;20485;-90
2023/10/18 13:17:36;;;;;;;14.82;3.33;;;18.00;88.00;;;;;;4977239;28;20082;-89
2023/10/18 13:20:06;;;;;;;15.65;3.78;;;17.90;88.80;;;;;;4977830;28;20026;-91
2023/10/18 13:22:34;;;;;;;19.20;3.55;;;17.70;89.70;;;;;;4993320;28;20369;-91
2023/10/18 13:25:07;;;;;;;15.43;3.08;;;17.60;90.20;;;;;;4975727;28;20027;-91
2023/10/18 13:27:37;;;;;;;19.80;3.08;;;17.50;90.60;;;;;;4993100;28;20035;-90
2023/10/18 13:30:10;;;;;;;14.27;3.35;;;17.40;90.90;;;;;;4977878;28;20030;-92
2023/10/18 13:32:40;;;;;;;16.50;3.28;;;17.30;91.20;;;;;;4977746;28;20101;-90
2023/10/18 13:35:14;;;;;;;17.35;3.78;;;17.10;91.70;;;;;;4977529;28;20082;-92
2023/10/18 13:37:43;;;;;;;12.43;3.42;;;17.00;92.10;;;;;;4979212;28;20105;-91
2023/10/18 13:40:18;;;;;;;19.60;3.53;;;17.00;92.70;;;;;;4982033;28;20089;-93
2023/10/18 13:42:45;;;;;;;13.05;3.03;;;17.00;93.10;;;;;;4978710;28;20096;-93
2023/10/18 13:45:13;;;;;;;16.80;3.55;;;16.90;93.30;;;;;;4975818;28;20035;-93
2023/10/18 13:47:39;;;;;;;11.60;3.20;;;16.80;93.70;;;;;;4976784;28;20022;-90
2023/10/18 13:50:09;;;;;;;14.02;3.88;;;16.70;94.20;;;;;;4992314;28;20165;-90
2023/10/18 13:52:38;;;;;;;22.33;3.78;;;16.50;94.70;;;;;;4977046;28;20034;-91
2023/10/18 13:55:04;;;;;;;16.55;3.58;;;16.40;95.20;;;;;;4976858;28;20097;-90
2023/10/18 13:57:32;;;;;;;18.25;3.97;;;16.40;95.70;;;;;;4975212;28;20109;-92
2023/10/18 13:59:59;;;;;;;14.80;3.42;;;16.30;96.20;;;;;;4976504;28;20456;-92
2023/10/18 14:02:26;;;;;;;17.02;3.10;;;16.20;96.60;;;;;;4983106;28;20019;-92
2023/10/18 14:04:52;;;;;;;13.88;3.75;;;16.10;97.00;;;;;;4987254;28;20084;-90
2023/10/18 14:07:21;;;;;;;13.00;3.45;;;16.00;97.40;;;;;;4986140;28;20031;-93
2023/10/18 14:09:47;;;;;;;12.93;3.13;;;15.90;97.80;;;;;;4976507;28;20121;-91
2023/10/18 14:12:13;;;;;;;17.63;4.10;;;15.90;98.20;;;;;;4975630;28;20034;-91
2023/10/18 14:14:39;;;;;;;17.67;4.18;;;15.80;98.70;;;;;;4976457;28;20030;-90